sensor_id;sensor_type;location;lat;lon;timestamp;P1;durP1;ratioP1;P2;durP2;ratioP2
52718;SDS011;38616;42.140;24.760;2023-06-14T00:01:43;6.55;;;4.20;;
52718;SDS011;38616;42.140;24.760;2023-06-14T00:04:10;5.25;;;3.97;;
52718;SDS011;38616;42.140;24.760;2023-06-14T00:06:36;8.45;;;4.00;;
52718;SDS011;38616;42.140;24.760;2023-06-14T00:09:01;7.75;;;4.53;;
52718;SDS011;38616;42.140;24.760;2023-06-14T00:11:27;8.63;;;4.30;;
52718;SDS011;38616;42.140;24.760;2023-06-14T00:13:53;7.45;;;4.40;;
52718;SDS011;38616;42.140;24.760;2023-06-14T00:16:18;8.20;;;4.50;;
52718;SDS011;38616;42.140;24.760;2023-06-14T00:18:44;7.72;;;4.55;;
52718;SDS011;38616;42.140;24.760;2023-06-14T00:21:11;5.57;;;3.67;;
52718;SDS011;38616;42.140;24.760;2023-06-14T00:23:37;6.95;;;4.22;;
52718;SDS011;38616;42.140;24.760;2023-06-14T00:26:02;6.95;;;4.65;;
52718;SDS011;38616;42.140;24.760;2023-06-14T00:28:28;6.15;;;4.38;;
52718;SDS011;38616;42.140;24.760;2023-06-14T00:30:53;8.98;;;4.55;;
52718;SDS011;38616;42.140;24.760;2023-06-14T00:33:19;7.70;;;4.68;;
52718;SDS011;38616;42.140;24.760;2023-06-14T00:35:45;10.27;;;5.00;;
52718;SDS011;38616;42.140;24.760;2023-06-14T00:38:10;6.97;;;4.45;;
52718;SDS011;38616;42.140;24.760;2023-06-14T00:40:35;9.75;;;4.25;;
52718;SDS011;38616;42.140;24.760;2023-06-14T00:43:01;6.38;;;4.45;;
52718;SDS011;38616;42.140;24.760;2023-06-14T00:45:26;10.23;;;4.40;;
52718;SDS011;38616;42.140;24.760;2023-06-14T00:47:52;7.45;;;5.57;;
52718;SDS011;38616;42.140;24.760;2023-06-14T00:50:20;7.07;;;4.22;;
52718;SDS011;38616;42.140;24.760;2023-06-14T00:52:46;8.85;;;5.13;;
52718;SDS011;38616;42.140;24.760;2023-06-14T00:55:12;5.60;;;4.28;;
52718;SDS011;38616;42.140;24.760;2023-06-14T00:57:38;6.80;;;4.75;;
52718;SDS011;38616;42.140;24.760;2023-06-14T01:00:05;8.70;;;4.73;;
52718;SDS011;38616;42.140;24.760;2023-06-14T01:02:34;7.75;;;5.00;;
52718;SDS011;38616;42.140;24.760;2023-06-14T01:07:40;6.63;;;4.68;;
52718;SDS011;38616;42.140;24.760;2023-06-14T01:13:28;7.05;;;4.47;;
52718;SDS011;38616;42.140;24.760;2023-06-14T01:15:58;7.35;;;4.93;;
52718;SDS011;38616;42.140;24.760;2023-06-14T01:18:24;8.43;;;4.90;;
52718;SDS011;38616;42.140;24.760;2023-06-14T01:20:51;6.55;;;5.18;;
52718;SDS011;38616;42.140;24.760;2023-06-14T01:23:18;10.68;;;5.30;;
52718;SDS011;38616;42.140;24.760;2023-06-14T01:25:45;8.50;;;4.82;;
52718;SDS011;38616;42.140;24.760;2023-06-14T01:28:12;8.83;;;4.87;;
52718;SDS011;38616;42.140;24.760;2023-06-14T01:30:42;8.05;;;5.40;;
52718;SDS011;38616;42.140;24.760;2023-06-14T01:33:13;7.82;;;5.20;;
52718;SDS011;38616;42.140;24.760;2023-06-14T01:35:43;11.50;;;4.97;;
52718;SDS011;38616;42.140;24.760;2023-06-14T01:38:12;8.10;;;5.05;;
52718;SDS011;38616;42.140;24.760;2023-06-14T01:40:39;6.68;;;4.70;;
52718;SDS011;38616;42.140;24.760;2023-06-14T01:43:05;10.03;;;5.53;;
52718;SDS011;38616;42.140;24.760;2023-06-14T01:45:32;13.15;;;5.15;;
52718;SDS011;38616;42.140;24.760;2023-06-14T01:50:31;8.15;;;4.68;;
52718;SDS011;38616;42.140;24.760;2023-06-14T01:52:57;11.73;;;5.25;;
52718;SDS011;38616;42.140;24.760;2023-06-14T01:55:23;8.38;;;4.93;;
52718;SDS011;38616;42.140;24.760;2023-06-14T01:57:49;10.48;;;4.57;;
52718;SDS011;38616;42.140;24.760;2023-06-14T02:00:15;9.57;;;5.10;;
52718;SDS011;38616;42.140;24.760;2023-06-14T02:02:43;6.70;;;4.90;;
52718;SDS011;38616;42.140;24.760;2023-06-14T02:05:09;8.65;;;5.07;;
52718;SDS011;38616;42.140;24.760;2023-06-14T02:07:35;9.55;;;5.10;;
52718;SDS011;38616;42.140;24.760;2023-06-14T02:10:01;10.75;;;5.15;;
52718;SDS011;38616;42.140;24.760;2023-06-14T02:12:28;6.22;;;4.25;;
52718;SDS011;38616;42.140;24.760;2023-06-14T02:14:53;7.30;;;5.03;;
52718;SDS011;38616;42.140;24.760;2023-06-14T02:17:19;9.52;;;4.80;;
52718;SDS011;38616;42.140;24.760;2023-06-14T02:19:45;6.65;;;4.72;;
52718;SDS011;38616;42.140;24.760;2023-06-14T02:22:10;7.57;;;5.32;;
52718;SDS011;38616;42.140;24.760;2023-06-14T02:24:36;6.88;;;4.72;;
52718;SDS011;38616;42.140;24.760;2023-06-14T02:27:02;7.60;;;4.70;;
52718;SDS011;38616;42.140;24.760;2023-06-14T02:29:28;19.33;;;4.72;;
52718;SDS011;38616;42.140;24.760;2023-06-14T02:31:53;6.80;;;4.25;;
52718;SDS011;38616;42.140;24.760;2023-06-14T02:34:19;8.00;;;4.45;;
52718;SDS011;38616;42.140;24.760;2023-06-14T02:36:46;7.07;;;5.03;;
52718;SDS011;38616;42.140;24.760;2023-06-14T02:39:12;7.20;;;4.05;;
52718;SDS011;38616;42.140;24.760;2023-06-14T02:41:38;7.18;;;4.78;;
52718;SDS011;38616;42.140;24.760;2023-06-14T02:44:03;8.45;;;5.07;;
52718;SDS011;38616;42.140;24.760;2023-06-14T02:46:29;8.65;;;4.65;;
52718;SDS011;38616;42.140;24.760;2023-06-14T02:48:55;6.45;;;4.50;;
52718;SDS011;38616;42.140;24.760;2023-06-14T02:51:20;9.35;;;4.22;;
52718;SDS011;38616;42.140;24.760;2023-06-14T02:53:45;8.20;;;5.22;;
52718;SDS011;38616;42.140;24.760;2023-06-14T02:56:11;7.72;;;5.00;;
52718;SDS011;38616;42.140;24.760;2023-06-14T02:58:37;8.88;;;4.45;;
52718;SDS011;38616;42.140;24.760;2023-06-14T03:01:04;5.00;;;4.03;;
52718;SDS011;38616;42.140;24.760;2023-06-14T03:03:30;10.75;;;4.28;;
52718;SDS011;38616;42.140;24.760;2023-06-14T03:05:56;10.05;;;4.40;;
52718;SDS011;38616;42.140;24.760;2023-06-14T03:08:22;7.25;;;4.70;;
52718;SDS011;38616;42.140;24.760;2023-06-14T03:10:52;11.35;;;5.10;;
52718;SDS011;38616;42.140;24.760;2023-06-14T03:13:18;9.05;;;4.95;;
52718;SDS011;38616;42.140;24.760;2023-06-14T03:15:46;6.65;;;4.60;;
52718;SDS011;38616;42.140;24.760;2023-06-14T03:18:12;10.57;;;4.38;;
52718;SDS011;38616;42.140;24.760;2023-06-14T03:20:39;6.88;;;3.78;;
52718;SDS011;38616;42.140;24.760;2023-06-14T03:23:06;9.23;;;4.03;;
52718;SDS011;38616;42.140;24.760;2023-06-14T03:25:34;6.47;;;4.57;;
52718;SDS011;38616;42.140;24.760;2023-06-14T03:28:03;9.93;;;4.22;;
52718;SDS011;38616;42.140;24.760;2023-06-14T03:30:30;8.15;;;4.63;;
52718;SDS011;38616;42.140;24.760;2023-06-14T03:32:56;9.38;;;4.22;;
52718;SDS011;38616;42.140;24.760;2023-06-14T03:35:22;5.07;;;4.15;;
52718;SDS011;38616;42.140;24.760;2023-06-14T03:37:48;10.52;;;4.68;;
52718;SDS011;38616;42.140;24.760;2023-06-14T03:40:15;9.55;;;4.35;;
52718;SDS011;38616;42.140;24.760;2023-06-14T03:42:41;7.28;;;4.50;;
52718;SDS011;38616;42.140;24.760;2023-06-14T03:45:07;6.90;;;4.03;;
52718;SDS011;38616;42.140;24.760;2023-06-14T03:47:33;9.20;;;4.28;;
52718;SDS011;38616;42.140;24.760;2023-06-14T03:49:59;10.05;;;4.22;;
52718;SDS011;38616;42.140;24.760;2023-06-14T03:52:27;10.20;;;4.05;;
52718;SDS011;38616;42.140;24.760;2023-06-14T03:54:53;10.50;;;5.00;;
52718;SDS011;38616;42.140;24.760;2023-06-14T03:57:18;8.45;;;4.72;;
52718;SDS011;38616;42.140;24.760;2023-06-14T03:59:45;10.13;;;4.57;;
52718;SDS011;38616;42.140;24.760;2023-06-14T04:02:10;7.38;;;4.45;;
52718;SDS011;38616;42.140;24.760;2023-06-14T04:04:36;11.25;;;5.53;;
52718;SDS011;38616;42.140;24.760;2023-06-14T04:07:02;12.38;;;4.82;;
52718;SDS011;38616;42.140;24.760;2023-06-14T04:09:29;11.48;;;5.40;;
52718;SDS011;38616;42.140;24.760;2023-06-14T04:11:55;8.95;;;4.55;;
52718;SDS011;38616;42.140;24.760;2023-06-14T04:14:21;8.25;;;4.50;;
52718;SDS011;38616;42.140;24.760;2023-06-14T04:16:47;10.50;;;4.97;;
52718;SDS011;38616;42.140;24.760;2023-06-14T04:19:13;10.48;;;5.28;;
52718;SDS011;38616;42.140;24.760;2023-06-14T04:21:39;12.82;;;5.32;;
52718;SDS011;38616;42.140;24.760;2023-06-14T04:24:05;9.30;;;4.43;;
52718;SDS011;38616;42.140;24.760;2023-06-14T04:26:38;11.15;;;4.30;;
52718;SDS011;38616;42.140;24.760;2023-06-14T04:29:04;10.63;;;4.28;;
52718;SDS011;38616;42.140;24.760;2023-06-14T04:31:30;16.52;;;8.55;;
52718;SDS011;38616;42.140;24.760;2023-06-14T04:33:58;13.48;;;6.22;;
52718;SDS011;38616;42.140;24.760;2023-06-14T04:36:24;13.10;;;5.38;;
52718;SDS011;38616;42.140;24.760;2023-06-14T04:38:50;10.90;;;5.35;;
52718;SDS011;38616;42.140;24.760;2023-06-14T04:41:19;13.70;;;7.13;;
52718;SDS011;38616;42.140;24.760;2023-06-14T04:43:47;15.05;;;6.80;;
52718;SDS011;38616;42.140;24.760;2023-06-14T04:46:14;8.18;;;4.70;;
52718;SDS011;38616;42.140;24.760;2023-06-14T04:48:40;8.25;;;4.55;;
52718;SDS011;38616;42.140;24.760;2023-06-14T04:51:08;11.02;;;4.72;;
52718;SDS011;38616;42.140;24.760;2023-06-14T04:53:34;13.45;;;4.93;;
52718;SDS011;38616;42.140;24.760;2023-06-14T04:56:00;9.60;;;4.53;;
52718;SDS011;38616;42.140;24.760;2023-06-14T04:58:28;9.98;;;5.55;;
52718;SDS011;38616;42.140;24.760;2023-06-14T05:00:54;8.20;;;5.43;;
52718;SDS011;38616;42.140;24.760;2023-06-14T05:03:21;13.93;;;5.57;;
52718;SDS011;38616;42.140;24.760;2023-06-14T05:05:47;15.55;;;6.72;;
52718;SDS011;38616;42.140;24.760;2023-06-14T05:08:13;12.20;;;5.93;;
52718;SDS011;38616;42.140;24.760;2023-06-14T05:10:38;11.90;;;7.13;;
52718;SDS011;38616;42.140;24.760;2023-06-14T05:13:04;16.48;;;9.70;;
52718;SDS011;38616;42.140;24.760;2023-06-14T05:15:29;12.80;;;7.72;;
52718;SDS011;38616;42.140;24.760;2023-06-14T05:17:55;13.60;;;7.07;;
52718;SDS011;38616;42.140;24.760;2023-06-14T05:20:24;13.05;;;7.45;;
52718;SDS011;38616;42.140;24.760;2023-06-14T05:22:52;12.57;;;7.65;;
52718;SDS011;38616;42.140;24.760;2023-06-14T05:25:18;17.48;;;8.68;;
52718;SDS011;38616;42.140;24.760;2023-06-14T05:27:44;14.38;;;8.10;;
52718;SDS011;38616;42.140;24.760;2023-06-14T05:30:10;18.75;;;8.73;;
52718;SDS011;38616;42.140;24.760;2023-06-14T05:32:39;13.38;;;7.88;;
52718;SDS011;38616;42.140;24.760;2023-06-14T05:35:07;13.35;;;7.38;;
52718;SDS011;38616;42.140;24.760;2023-06-14T05:37:54;11.13;;;6.80;;
52718;SDS011;38616;42.140;24.760;2023-06-14T05:40:20;14.27;;;7.25;;
52718;SDS011;38616;42.140;24.760;2023-06-14T05:42:45;12.70;;;7.65;;
52718;SDS011;38616;42.140;24.760;2023-06-14T05:45:11;16.02;;;7.38;;
52718;SDS011;38616;42.140;24.760;2023-06-14T05:47:36;13.10;;;7.57;;
52718;SDS011;38616;42.140;24.760;2023-06-14T05:50:02;14.15;;;8.20;;
52718;SDS011;38616;42.140;24.760;2023-06-14T05:52:28;13.88;;;8.05;;
52718;SDS011;38616;42.140;24.760;2023-06-14T05:54:56;12.35;;;7.40;;
52718;SDS011;38616;42.140;24.760;2023-06-14T05:59:47;15.20;;;8.20;;
52718;SDS011;38616;42.140;24.760;2023-06-14T06:02:12;13.45;;;7.95;;
52718;SDS011;38616;42.140;24.760;2023-06-14T06:04:38;18.60;;;8.57;;
52718;SDS011;38616;42.140;24.760;2023-06-14T06:07:03;14.20;;;8.25;;
52718;SDS011;38616;42.140;24.760;2023-06-14T06:09:30;21.55;;;11.63;;
52718;SDS011;38616;42.140;24.760;2023-06-14T06:11:56;16.50;;;9.05;;
52718;SDS011;38616;42.140;24.760;2023-06-14T06:14:21;16.38;;;9.60;;
52718;SDS011;38616;42.140;24.760;2023-06-14T06:16:46;15.13;;;9.07;;
52718;SDS011;38616;42.140;24.760;2023-06-14T06:19:12;16.08;;;9.82;;
52718;SDS011;38616;42.140;24.760;2023-06-14T06:21:37;14.65;;;9.10;;
52718;SDS011;38616;42.140;24.760;2023-06-14T06:24:04;15.13;;;9.23;;
52718;SDS011;38616;42.140;24.760;2023-06-14T06:26:30;14.82;;;10.02;;
52718;SDS011;38616;42.140;24.760;2023-06-14T06:28:56;18.50;;;9.55;;
52718;SDS011;38616;42.140;24.760;2023-06-14T06:31:22;18.33;;;10.20;;
52718;SDS011;38616;42.140;24.760;2023-06-14T06:33:48;18.13;;;9.15;;
52718;SDS011;38616;42.140;24.760;2023-06-14T06:36:16;13.57;;;9.55;;
52718;SDS011;38616;42.140;24.760;2023-06-14T06:38:44;15.85;;;8.77;;
52718;SDS011;38616;42.140;24.760;2023-06-14T06:41:09;17.23;;;10.73;;
52718;SDS011;38616;42.140;24.760;2023-06-14T06:43:35;17.73;;;7.72;;
52718;SDS011;38616;42.140;24.760;2023-06-14T06:46:00;12.90;;;7.70;;
52718;SDS011;38616;42.140;24.760;2023-06-14T06:48:25;12.00;;;8.23;;
52718;SDS011;38616;42.140;24.760;2023-06-14T06:50:51;14.68;;;8.40;;
52718;SDS011;38616;42.140;24.760;2023-06-14T06:53:17;14.52;;;8.10;;
52718;SDS011;38616;42.140;24.760;2023-06-14T06:55:43;14.68;;;7.97;;
52718;SDS011;38616;42.140;24.760;2023-06-14T06:58:09;14.02;;;8.23;;
52718;SDS011;38616;42.140;24.760;2023-06-14T07:00:34;14.90;;;9.38;;
52718;SDS011;38616;42.140;24.760;2023-06-14T07:03:00;15.32;;;9.20;;
52718;SDS011;38616;42.140;24.760;2023-06-14T07:05:26;15.30;;;8.75;;
52718;SDS011;38616;42.140;24.760;2023-06-14T07:07:51;14.73;;;8.77;;
52718;SDS011;38616;42.140;24.760;2023-06-14T07:10:17;18.02;;;9.60;;
52718;SDS011;38616;42.140;24.760;2023-06-14T07:12:43;14.38;;;9.50;;
52718;SDS011;38616;42.140;24.760;2023-06-14T07:15:09;15.85;;;9.80;;
52718;SDS011;38616;42.140;24.760;2023-06-14T07:17:35;14.77;;;9.32;;
52718;SDS011;38616;42.140;24.760;2023-06-14T07:20:02;17.67;;;8.93;;
52718;SDS011;38616;42.140;24.760;2023-06-14T07:22:33;20.00;;;9.95;;
52718;SDS011;38616;42.140;24.760;2023-06-14T07:24:58;16.75;;;9.68;;
52718;SDS011;38616;42.140;24.760;2023-06-14T07:27:23;17.92;;;9.32;;
52718;SDS011;38616;42.140;24.760;2023-06-14T07:29:49;18.95;;;9.82;;
52718;SDS011;38616;42.140;24.760;2023-06-14T07:32:14;17.85;;;10.60;;
52718;SDS011;38616;42.140;24.760;2023-06-14T07:34:40;18.00;;;11.05;;
52718;SDS011;38616;42.140;24.760;2023-06-14T07:37:05;16.95;;;9.63;;
52718;SDS011;38616;42.140;24.760;2023-06-14T07:39:31;16.70;;;9.73;;
52718;SDS011;38616;42.140;24.760;2023-06-14T07:41:56;26.27;;;9.88;;
52718;SDS011;38616;42.140;24.760;2023-06-14T07:44:21;16.00;;;10.48;;
52718;SDS011;38616;42.140;24.760;2023-06-14T07:46:47;17.73;;;9.77;;
52718;SDS011;38616;42.140;24.760;2023-06-14T07:49:14;19.02;;;10.93;;
52718;SDS011;38616;42.140;24.760;2023-06-14T07:51:40;14.43;;;9.23;;
52718;SDS011;38616;42.140;24.760;2023-06-14T07:54:05;13.05;;;8.63;;
52718;SDS011;38616;42.140;24.760;2023-06-14T07:56:32;15.40;;;8.80;;
52718;SDS011;38616;42.140;24.760;2023-06-14T07:58:58;12.73;;;8.48;;
52718;SDS011;38616;42.140;24.760;2023-06-14T08:01:25;13.93;;;8.25;;
52718;SDS011;38616;42.140;24.760;2023-06-14T08:03:52;15.05;;;9.02;;
52718;SDS011;38616;42.140;24.760;2023-06-14T08:06:18;14.25;;;8.65;;
52718;SDS011;38616;42.140;24.760;2023-06-14T08:08:43;13.45;;;9.45;;
52718;SDS011;38616;42.140;24.760;2023-06-14T08:11:09;15.20;;;9.57;;
52718;SDS011;38616;42.140;24.760;2023-06-14T08:13:34;16.42;;;8.45;;
52718;SDS011;38616;42.140;24.760;2023-06-14T08:15:59;11.75;;;7.57;;
52718;SDS011;38616;42.140;24.760;2023-06-14T08:18:26;12.93;;;7.95;;
52718;SDS011;38616;42.140;24.760;2023-06-14T08:20:51;16.25;;;10.38;;
52718;SDS011;38616;42.140;24.760;2023-06-14T08:23:17;15.77;;;9.63;;
52718;SDS011;38616;42.140;24.760;2023-06-14T08:25:44;12.57;;;8.70;;
52718;SDS011;38616;42.140;24.760;2023-06-14T08:28:10;16.38;;;9.15;;
52718;SDS011;38616;42.140;24.760;2023-06-14T08:30:35;14.98;;;8.82;;
52718;SDS011;38616;42.140;24.760;2023-06-14T08:33:01;16.67;;;8.02;;
52718;SDS011;38616;42.140;24.760;2023-06-14T08:35:26;11.75;;;7.88;;
52718;SDS011;38616;42.140;24.760;2023-06-14T08:37:53;11.73;;;8.90;;
52718;SDS011;38616;42.140;24.760;2023-06-14T08:40:19;13.98;;;7.60;;
52718;SDS011;38616;42.140;24.760;2023-06-14T08:42:55;13.90;;;7.70;;
52718;SDS011;38616;42.140;24.760;2023-06-14T08:45:21;19.55;;;8.73;;
52718;SDS011;38616;42.140;24.760;2023-06-14T08:47:49;14.40;;;8.57;;
52718;SDS011;38616;42.140;24.760;2023-06-14T08:50:23;16.02;;;8.35;;
52718;SDS011;38616;42.140;24.760;2023-06-14T08:52:54;14.63;;;8.45;;
52718;SDS011;38616;42.140;24.760;2023-06-14T08:55:22;16.02;;;7.93;;
52718;SDS011;38616;42.140;24.760;2023-06-14T08:57:52;13.35;;;7.45;;
52718;SDS011;38616;42.140;24.760;2023-06-14T09:00:19;16.13;;;7.30;;
52718;SDS011;38616;42.140;24.760;2023-06-14T09:02:46;15.10;;;8.43;;
52718;SDS011;38616;42.140;24.760;2023-06-14T09:05:15;18.52;;;9.60;;
52718;SDS011;38616;42.140;24.760;2023-06-14T09:07:43;11.77;;;7.40;;
52718;SDS011;38616;42.140;24.760;2023-06-14T09:10:09;13.57;;;7.85;;
52718;SDS011;38616;42.140;24.760;2023-06-14T09:12:40;11.68;;;6.97;;
52718;SDS011;38616;42.140;24.760;2023-06-14T09:15:06;15.57;;;8.45;;
52718;SDS011;38616;42.140;24.760;2023-06-14T09:17:34;19.55;;;7.78;;
52718;SDS011;38616;42.140;24.760;2023-06-14T09:20:06;13.80;;;7.93;;
52718;SDS011;38616;42.140;24.760;2023-06-14T09:22:36;12.75;;;7.95;;
52718;SDS011;38616;42.140;24.760;2023-06-14T09:25:03;11.82;;;7.70;;
52718;SDS011;38616;42.140;24.760;2023-06-14T09:27:29;11.75;;;7.35;;
52718;SDS011;38616;42.140;24.760;2023-06-14T09:29:55;10.68;;;7.78;;
52718;SDS011;38616;42.140;24.760;2023-06-14T09:32:24;13.38;;;9.18;;
52718;SDS011;38616;42.140;24.760;2023-06-14T09:34:50;12.95;;;8.30;;
52718;SDS011;38616;42.140;24.760;2023-06-14T09:37:29;15.48;;;7.63;;
52718;SDS011;38616;42.140;24.760;2023-06-14T09:39:55;11.82;;;8.23;;
52718;SDS011;38616;42.140;24.760;2023-06-14T09:42:21;12.48;;;8.18;;
52718;SDS011;38616;42.140;24.760;2023-06-14T09:44:50;11.98;;;8.13;;
52718;SDS011;38616;42.140;24.760;2023-06-14T09:47:17;13.00;;;7.30;;
52718;SDS011;38616;42.140;24.760;2023-06-14T09:49:43;11.73;;;8.10;;
52718;SDS011;38616;42.140;24.760;2023-06-14T09:52:19;13.70;;;7.65;;
52718;SDS011;38616;42.140;24.760;2023-06-14T09:54:46;14.02;;;7.82;;
52718;SDS011;38616;42.140;24.760;2023-06-14T09:57:13;18.65;;;9.18;;
52718;SDS011;38616;42.140;24.760;2023-06-14T10:07:40;12.50;;;8.95;;
52718;SDS011;38616;42.140;24.760;2023-06-14T10:10:09;15.05;;;7.55;;
52718;SDS011;38616;42.140;24.760;2023-06-14T10:12:35;11.50;;;7.90;;
52718;SDS011;38616;42.140;24.760;2023-06-14T10:15:01;12.45;;;7.57;;
52718;SDS011;38616;42.140;24.760;2023-06-14T10:20:40;13.27;;;8.05;;
52718;SDS011;38616;42.140;24.760;2023-06-14T10:25:43;16.70;;;8.93;;
52718;SDS011;38616;42.140;24.760;2023-06-14T10:28:19;14.35;;;8.43;;
52718;SDS011;38616;42.140;24.760;2023-06-14T10:31:10;15.05;;;8.25;;
52718;SDS011;38616;42.140;24.760;2023-06-14T10:33:50;22.52;;;8.07;;
52718;SDS011;38616;42.140;24.760;2023-06-14T10:37:04;14.50;;;8.93;;
52718;SDS011;38616;42.140;24.760;2023-06-14T10:39:17;14.95;;;8.80;;
52718;SDS011;38616;42.140;24.760;2023-06-14T10:41:50;11.95;;;8.15;;
52718;SDS011;38616;42.140;24.760;2023-06-14T10:46:58;14.23;;;7.65;;
52718;SDS011;38616;42.140;24.760;2023-06-14T10:49:37;12.90;;;7.55;;
52718;SDS011;38616;42.140;24.760;2023-06-14T10:52:14;12.75;;;7.60;;
52718;SDS011;38616;42.140;24.760;2023-06-14T10:55:03;11.77;;;7.60;;
52718;SDS011;38616;42.140;24.760;2023-06-14T11:00:09;14.57;;;9.85;;
52718;SDS011;38616;42.140;24.760;2023-06-14T11:02:46;12.60;;;8.55;;
52718;SDS011;38616;42.140;24.760;2023-06-14T11:05:30;14.52;;;9.15;;
52718;SDS011;38616;42.140;24.760;2023-06-14T11:08:10;12.50;;;9.25;;
52718;SDS011;38616;42.140;24.760;2023-06-14T11:10:42;20.52;;;10.60;;
52718;SDS011;38616;42.140;24.760;2023-06-14T11:13:10;18.33;;;11.82;;
52718;SDS011;38616;42.140;24.760;2023-06-14T11:15:36;18.80;;;10.82;;
52718;SDS011;38616;42.140;24.760;2023-06-14T11:18:04;15.50;;;10.77;;
52718;SDS011;38616;42.140;24.760;2023-06-14T11:20:31;12.63;;;8.32;;
52718;SDS011;38616;42.140;24.760;2023-06-14T11:22:58;11.15;;;8.30;;
52718;SDS011;38616;42.140;24.760;2023-06-14T11:25:24;11.98;;;8.15;;
52718;SDS011;38616;42.140;24.760;2023-06-14T11:27:50;16.02;;;8.90;;
52718;SDS011;38616;42.140;24.760;2023-06-14T11:30:19;11.90;;;8.10;;
52718;SDS011;38616;42.140;24.760;2023-06-14T11:32:51;15.98;;;8.07;;
52718;SDS011;38616;42.140;24.760;2023-06-14T11:35:18;14.52;;;8.43;;
52718;SDS011;38616;42.140;24.760;2023-06-14T11:37:44;11.98;;;8.48;;
52718;SDS011;38616;42.140;24.760;2023-06-14T11:40:10;15.00;;;8.60;;
52718;SDS011;38616;42.140;24.760;2023-06-14T11:42:37;12.05;;;8.07;;
52718;SDS011;38616;42.140;24.760;2023-06-14T11:45:03;11.13;;;7.43;;
52718;SDS011;38616;42.140;24.760;2023-06-14T11:47:32;13.65;;;8.32;;
52718;SDS011;38616;42.140;24.760;2023-06-14T11:49:59;12.23;;;8.38;;
52718;SDS011;38616;42.140;24.760;2023-06-14T11:52:25;13.73;;;8.75;;
52718;SDS011;38616;42.140;24.760;2023-06-14T11:54:51;12.73;;;8.80;;
52718;SDS011;38616;42.140;24.760;2023-06-14T11:57:17;12.05;;;8.93;;
52718;SDS011;38616;42.140;24.760;2023-06-14T11:59:43;17.35;;;9.52;;
52718;SDS011;38616;42.140;24.760;2023-06-14T12:02:09;12.23;;;9.02;;
52718;SDS011;38616;42.140;24.760;2023-06-14T12:04:42;15.35;;;9.13;;
52718;SDS011;38616;42.140;24.760;2023-06-14T12:07:12;15.82;;;8.80;;
52718;SDS011;38616;42.140;24.760;2023-06-14T12:12:16;17.80;;;9.32;;
52718;SDS011;38616;42.140;24.760;2023-06-14T12:14:42;19.45;;;9.82;;
52718;SDS011;38616;42.140;24.760;2023-06-14T12:17:07;14.40;;;9.68;;
52718;SDS011;38616;42.140;24.760;2023-06-14T12:19:33;12.80;;;8.73;;
52718;SDS011;38616;42.140;24.760;2023-06-14T12:22:07;13.23;;;10.02;;
52718;SDS011;38616;42.140;24.760;2023-06-14T12:24:35;17.65;;;11.95;;
52718;SDS011;38616;42.140;24.760;2023-06-14T12:27:00;13.00;;;9.40;;
52718;SDS011;38616;42.140;24.760;2023-06-14T12:29:28;14.13;;;8.85;;
52718;SDS011;38616;42.140;24.760;2023-06-14T12:31:54;13.48;;;9.45;;
52718;SDS011;38616;42.140;24.760;2023-06-14T12:36:48;13.77;;;9.48;;
52718;SDS011;38616;42.140;24.760;2023-06-14T12:39:13;14.60;;;9.48;;
52718;SDS011;38616;42.140;24.760;2023-06-14T12:41:39;13.68;;;10.00;;
52718;SDS011;38616;42.140;24.760;2023-06-14T12:44:06;11.25;;;8.98;;
52718;SDS011;38616;42.140;24.760;2023-06-14T12:46:32;13.40;;;9.80;;
52718;SDS011;38616;42.140;24.760;2023-06-14T12:48:59;14.00;;;9.52;;
52718;SDS011;38616;42.140;24.760;2023-06-14T12:51:25;16.58;;;8.77;;
52718;SDS011;38616;42.140;24.760;2023-06-14T12:53:51;16.77;;;9.80;;
52718;SDS011;38616;42.140;24.760;2023-06-14T12:56:16;18.23;;;8.48;;
52718;SDS011;38616;42.140;24.760;2023-06-14T12:58:42;14.32;;;9.00;;
52718;SDS011;38616;42.140;24.760;2023-06-14T13:01:07;13.55;;;9.02;;
52718;SDS011;38616;42.140;24.760;2023-06-14T13:03:33;12.82;;;8.05;;
52718;SDS011;38616;42.140;24.760;2023-06-14T13:05:59;13.82;;;8.90;;
52718;SDS011;38616;42.140;24.760;2023-06-14T13:08:25;12.80;;;7.97;;
52718;SDS011;38616;42.140;24.760;2023-06-14T13:10:51;16.27;;;8.25;;
52718;SDS011;38616;42.140;24.760;2023-06-14T13:13:16;14.95;;;8.48;;
52718;SDS011;38616;42.140;24.760;2023-06-14T13:15:42;14.35;;;8.30;;
52718;SDS011;38616;42.140;24.760;2023-06-14T13:18:08;16.17;;;9.05;;
52718;SDS011;38616;42.140;24.760;2023-06-14T13:20:34;15.20;;;9.35;;
52718;SDS011;38616;42.140;24.760;2023-06-14T13:22:59;12.70;;;8.23;;
52718;SDS011;38616;42.140;24.760;2023-06-14T13:25:25;18.05;;;9.30;;
52718;SDS011;38616;42.140;24.760;2023-06-14T13:27:50;13.32;;;8.40;;
52718;SDS011;38616;42.140;24.760;2023-06-14T13:30:16;12.93;;;8.45;;
52718;SDS011;38616;42.140;24.760;2023-06-14T13:32:42;13.35;;;9.48;;
52718;SDS011;38616;42.140;24.760;2023-06-14T13:35:07;11.77;;;8.90;;
52718;SDS011;38616;42.140;24.760;2023-06-14T13:37:33;11.95;;;8.35;;
52718;SDS011;38616;42.140;24.760;2023-06-14T13:39:58;14.98;;;9.63;;
52718;SDS011;38616;42.140;24.760;2023-06-14T13:42:24;15.07;;;10.05;;
52718;SDS011;38616;42.140;24.760;2023-06-14T13:44:50;17.00;;;10.13;;
52718;SDS011;38616;42.140;24.760;2023-06-14T13:47:16;15.07;;;10.07;;
52718;SDS011;38616;42.140;24.760;2023-06-14T13:49:42;14.60;;;9.15;;
52718;SDS011;38616;42.140;24.760;2023-06-14T13:52:07;15.95;;;10.05;;
52718;SDS011;38616;42.140;24.760;2023-06-14T13:54:33;18.27;;;9.23;;
52718;SDS011;38616;42.140;24.760;2023-06-14T13:56:58;17.98;;;8.77;;
52718;SDS011;38616;42.140;24.760;2023-06-14T13:59:24;12.27;;;7.93;;
52718;SDS011;38616;42.140;24.760;2023-06-14T14:01:49;11.20;;;7.70;;
52718;SDS011;38616;42.140;24.760;2023-06-14T14:04:15;10.38;;;7.75;;
52718;SDS011;38616;42.140;24.760;2023-06-14T14:06:40;11.63;;;7.32;;
52718;SDS011;38616;42.140;24.760;2023-06-14T14:09:06;9.23;;;6.18;;
52718;SDS011;38616;42.140;24.760;2023-06-14T14:11:32;8.75;;;6.05;;
52718;SDS011;38616;42.140;24.760;2023-06-14T14:13:58;10.55;;;6.32;;
52718;SDS011;38616;42.140;24.760;2023-06-14T14:16:24;8.27;;;5.95;;
52718;SDS011;38616;42.140;24.760;2023-06-14T14:18:49;10.43;;;5.35;;
52718;SDS011;38616;42.140;24.760;2023-06-14T14:21:15;10.02;;;4.80;;
52718;SDS011;38616;42.140;24.760;2023-06-14T14:23:40;12.45;;;5.63;;
52718;SDS011;38616;42.140;24.760;2023-06-14T14:26:05;7.18;;;5.03;;
52718;SDS011;38616;42.140;24.760;2023-06-14T14:28:31;7.80;;;4.75;;
52718;SDS011;38616;42.140;24.760;2023-06-14T14:30:58;5.95;;;4.70;;
52718;SDS011;38616;42.140;24.760;2023-06-14T14:33:24;9.82;;;4.60;;
52718;SDS011;38616;42.140;24.760;2023-06-14T14:35:50;6.60;;;4.10;;
52718;SDS011;38616;42.140;24.760;2023-06-14T14:38:15;7.05;;;4.47;;
52718;SDS011;38616;42.140;24.760;2023-06-14T14:40:41;6.43;;;4.70;;
52718;SDS011;38616;42.140;24.760;2023-06-14T14:43:07;8.05;;;3.90;;
52718;SDS011;38616;42.140;24.760;2023-06-14T14:45:33;5.95;;;3.53;;
52718;SDS011;38616;42.140;24.760;2023-06-14T14:48:00;10.15;;;4.18;;
52718;SDS011;38616;42.140;24.760;2023-06-14T14:52:51;6.28;;;3.78;;
52718;SDS011;38616;42.140;24.760;2023-06-14T14:55:16;10.75;;;4.35;;
52718;SDS011;38616;42.140;24.760;2023-06-14T14:57:43;6.78;;;4.47;;
52718;SDS011;38616;42.140;24.760;2023-06-14T15:00:09;9.75;;;4.07;;